sensor_id;sensor_type;location;lat;lon;timestamp;temperature;humidity
22426;DHT22;11380;50.822;15.790;2023-04-03T00:04:26;1.10;99.90
22426;DHT22;11380;50.822;15.790;2023-04-03T00:09:33;1.20;99.90
22426;DHT22;11380;50.822;15.790;2023-04-03T00:14:41;1.10;99.90
22426;DHT22;11380;50.822;15.790;2023-04-03T00:19:49;1.10;99.90
22426;DHT22;11380;50.822;15.790;2023-04-03T00:24:56;0.90;99.90
22426;DHT22;11380;50.822;15.790;2023-04-03T00:30:04;0.70;99.90
22426;DHT22;11380;50.822;15.790;2023-04-03T00:35:12;0.70;99.90
22426;DHT22;11380;50.822;15.790;2023-04-03T00:40:22;0.70;99.90
22426;DHT22;11380;50.822;15.790;2023-04-03T00:45:35;0.60;99.90
22426;DHT22;11380;50.822;15.790;2023-04-03T00:50:45;0.80;99.90
22426;DHT22;11380;50.822;15.790;2023-04-03T00:55:53;0.70;99.90
22426;DHT22;11380;50.822;15.790;2023-04-03T01:01:03;0.60;99.90
22426;DHT22;11380;50.822;15.790;2023-04-03T01:06:15;0.70;99.90
22426;DHT22;11380;50.822;15.790;2023-04-03T01:11:25;0.30;99.90
22426;DHT22;11380;50.822;15.790;2023-04-03T01:16:32;0.50;99.90
22426;DHT22;11380;50.822;15.790;2023-04-03T01:21:54;0.40;99.90
22426;DHT22;11380;50.822;15.790;2023-04-03T01:27:10;0.60;99.90
22426;DHT22;11380;50.822;15.790;2023-04-03T01:32:18;0.40;99.90
22426;DHT22;11380;50.822;15.790;2023-04-03T01:37:26;0.70;99.90
22426;DHT22;11380;50.822;15.790;2023-04-03T01:42:35;0.70;99.90
22426;DHT22;11380;50.822;15.790;2023-04-03T01:47:43;0.60;99.90
22426;DHT22;11380;50.822;15.790;2023-04-03T01:52:51;0.40;99.90
22426;DHT22;11380;50.822;15.790;2023-04-03T01:57:58;0.40;99.90
22426;DHT22;11380;50.822;15.790;2023-04-03T02:03:05;0.40;99.90
22426;DHT22;11380;50.822;15.790;2023-04-03T02:08:12;0.60;99.90
22426;DHT22;11380;50.822;15.790;2023-04-03T02:13:20;0.50;99.90
22426;DHT22;11380;50.822;15.790;2023-04-03T02:18:27;0.30;99.90
22426;DHT22;11380;50.822;15.790;2023-04-03T02:23:35;0.30;99.90
22426;DHT22;11380;50.822;15.790;2023-04-03T02:28:44;0.30;99.90
22426;DHT22;11380;50.822;15.790;2023-04-03T02:33:51;0.40;99.90
22426;DHT22;11380;50.822;15.790;2023-04-03T02:38:58;0.40;99.90
22426;DHT22;11380;50.822;15.790;2023-04-03T02:44:06;0.30;99.90
22426;DHT22;11380;50.822;15.790;2023-04-03T02:49:16;0.20;99.90
22426;DHT22;11380;50.822;15.790;2023-04-03T02:54:24;0.20;99.90
22426;DHT22;11380;50.822;15.790;2023-04-03T02:59:32;0.00;99.90
22426;DHT22;11380;50.822;15.790;2023-04-03T03:04:40;-0.10;99.90
22426;DHT22;11380;50.822;15.790;2023-04-03T03:09:48;-0.20;99.90
22426;DHT22;11380;50.822;15.790;2023-04-03T03:14:56;-0.20;99.90
22426;DHT22;11380;50.822;15.790;2023-04-03T03:20:05;-0.30;99.90
22426;DHT22;11380;50.822;15.790;2023-04-03T03:25:14;-0.50;99.90
22426;DHT22;11380;50.822;15.790;2023-04-03T03:30:21;-0.60;99.90
22426;DHT22;11380;50.822;15.790;2023-04-03T03:35:29;-0.30;99.90
22426;DHT22;11380;50.822;15.790;2023-04-03T03:40:37;-0.60;99.90
22426;DHT22;11380;50.822;15.790;2023-04-03T03:45:45;-0.60;99.90
22426;DHT22;11380;50.822;15.790;2023-04-03T03:50:58;-0.30;99.90
22426;DHT22;11380;50.822;15.790;2023-04-03T03:56:05;-0.40;99.90
22426;DHT22;11380;50.822;15.790;2023-04-03T04:01:13;-0.30;99.90
22426;DHT22;11380;50.822;15.790;2023-04-03T04:06:20;-0.40;99.90
22426;DHT22;11380;50.822;15.790;2023-04-03T04:11:28;-0.70;99.90
22426;DHT22;11380;50.822;15.790;2023-04-03T04:16:35;-0.80;99.90
22426;DHT22;11380;50.822;15.790;2023-04-03T04:21:43;-0.90;99.90
22426;DHT22;11380;50.822;15.790;2023-04-03T04:26:51;-0.80;99.90
22426;DHT22;11380;50.822;15.790;2023-04-03T04:31:59;-0.60;99.90
22426;DHT22;11380;50.822;15.790;2023-04-03T04:37:07;-1.00;99.90
22426;DHT22;11380;50.822;15.790;2023-04-03T04:42:14;-0.50;99.90
22426;DHT22;11380;50.822;15.790;2023-04-03T04:47:22;-0.40;99.90
22426;DHT22;11380;50.822;15.790;2023-04-03T04:52:30;-0.80;99.90
22426;DHT22;11380;50.822;15.790;2023-04-03T04:57:37;-0.50;99.90
22426;DHT22;11380;50.822;15.790;2023-04-03T05:02:44;-0.40;99.90
22426;DHT22;11380;50.822;15.790;2023-04-03T05:07:52;-0.30;99.90
22426;DHT22;11380;50.822;15.790;2023-04-03T05:12:59;-0.30;99.90
22426;DHT22;11380;50.822;15.790;2023-04-03T05:18:07;-0.20;99.90
22426;DHT22;11380;50.822;15.790;2023-04-03T05:23:14;-0.50;99.90
22426;DHT22;11380;50.822;15.790;2023-04-03T05:28:23;-0.50;99.90
22426;DHT22;11380;50.822;15.790;2023-04-03T05:33:34;-0.80;99.90
22426;DHT22;11380;50.822;15.790;2023-04-03T05:38:41;-0.70;99.90
22426;DHT22;11380;50.822;15.790;2023-04-03T05:43:48;-0.80;99.90
22426;DHT22;11380;50.822;15.790;2023-04-03T05:48:55;-1.00;99.90
22426;DHT22;11380;50.822;15.790;2023-04-03T05:54:26;-0.70;99.90
22426;DHT22;11380;50.822;15.790;2023-04-03T05:59:35;-0.70;99.90
22426;DHT22;11380;50.822;15.790;2023-04-03T06:04:42;-0.60;99.90
22426;DHT22;11380;50.822;15.790;2023-04-03T06:09:50;-0.60;99.90
22426;DHT22;11380;50.822;15.790;2023-04-03T06:14:59;-0.70;99.90
22426;DHT22;11380;50.822;15.790;2023-04-03T06:20:07;-1.00;99.90
22426;DHT22;11380;50.822;15.790;2023-04-03T06:25:15;-1.10;99.90
22426;DHT22;11380;50.822;15.790;2023-04-03T06:30:23;-1.20;99.90
22426;DHT22;11380;50.822;15.790;2023-04-03T06:35:31;-0.20;99.90
22426;DHT22;11380;50.822;15.790;2023-04-03T06:40:40;0.20;99.90
22426;DHT22;11380;50.822;15.790;2023-04-03T06:45:47;0.40;99.90
22426;DHT22;11380;50.822;15.790;2023-04-03T06:50:55;0.50;99.90
22426;DHT22;11380;50.822;15.790;2023-04-03T06:56:02;0.40;99.90
22426;DHT22;11380;50.822;15.790;2023-04-03T07:01:11;0.40;99.90
22426;DHT22;11380;50.822;15.790;2023-04-03T07:06:20;-0.40;99.90
22426;DHT22;11380;50.822;15.790;2023-04-03T07:11:27;-0.60;99.90
22426;DHT22;11380;50.822;15.790;2023-04-03T07:16:36;0.00;99.90
22426;DHT22;11380;50.822;15.790;2023-04-03T07:21:45;0.10;99.90
22426;DHT22;11380;50.822;15.790;2023-04-03T07:26:53;-0.40;99.90
22426;DHT22;11380;50.822;15.790;2023-04-03T07:32:01;0.40;99.90
22426;DHT22;11380;50.822;15.790;2023-04-03T07:37:09;0.30;99.90
22426;DHT22;11380;50.822;15.790;2023-04-03T07:42:16;1.10;99.90
22426;DHT22;11380;50.822;15.790;2023-04-03T07:47:24;1.70;99.90
22426;DHT22;11380;50.822;15.790;2023-04-03T07:52:31;1.90;99.90
22426;DHT22;11380;50.822;15.790;2023-04-03T07:57:39;1.60;99.90
22426;DHT22;11380;50.822;15.790;2023-04-03T08:02:47;0.50;99.90
22426;DHT22;11380;50.822;15.790;2023-04-03T08:07:57;1.70;99.90
22426;DHT22;11380;50.822;15.790;2023-04-03T08:13:05;2.10;99.90
22426;DHT22;11380;50.822;15.790;2023-04-03T08:18:13;2.20;99.90
22426;DHT22;11380;50.822;15.790;2023-04-03T08:23:21;2.40;99.90
22426;DHT22;11380;50.822;15.790;2023-04-03T08:28:27;1.60;99.90
22426;DHT22;11380;50.822;15.790;2023-04-03T08:33:35;1.50;99.90
22426;DHT22;11380;50.822;15.790;2023-04-03T08:38:42;2.10;99.90
22426;DHT22;11380;50.822;15.790;2023-04-03T08:43:54;2.30;99.90
22426;DHT22;11380;50.822;15.790;2023-04-03T08:49:10;1.90;99.90
22426;DHT22;11380;50.822;15.790;2023-04-03T08:54:34;2.10;99.90
22426;DHT22;11380;50.822;15.790;2023-04-03T08:59:43;0.80;99.90
22426;DHT22;11380;50.822;15.790;2023-04-03T09:04:51;1.70;99.90
22426;DHT22;11380;50.822;15.790;2023-04-03T09:10:00;3.00;99.90
22426;DHT22;11380;50.822;15.790;2023-04-03T09:15:21;2.10;99.90
22426;DHT22;11380;50.822;15.790;2023-04-03T09:26:08;1.60;99.90
22426;DHT22;11380;50.822;15.790;2023-04-03T09:31:27;3.40;99.90
22426;DHT22;11380;50.822;15.790;2023-04-03T09:36:45;3.20;99.90
22426;DHT22;11380;50.822;15.790;2023-04-03T09:42:18;2.90;99.90
22426;DHT22;11380;50.822;15.790;2023-04-03T09:47:32;2.60;99.90
22426;DHT22;11380;50.822;15.790;2023-04-03T09:52:49;2.50;99.90
22426;DHT22;11380;50.822;15.790;2023-04-03T09:57:57;2.70;99.90
22426;DHT22;11380;50.822;15.790;2023-04-03T10:03:03;2.40;97.60
22426;DHT22;11380;50.822;15.790;2023-04-03T10:13:26;3.20;98.20
22426;DHT22;11380;50.822;15.790;2023-04-03T10:18:49;2.90;96.60
22426;DHT22;11380;50.822;15.790;2023-04-03T10:24:28;3.40;99.90
22426;DHT22;11380;50.822;15.790;2023-04-03T10:30:00;3.60;97.80
22426;DHT22;11380;50.822;15.790;2023-04-03T10:35:48;2.40;98.70
22426;DHT22;11380;50.822;15.790;2023-04-03T10:46:35;2.50;97.40
22426;DHT22;11380;50.822;15.790;2023-04-03T10:51:51;3.60;99.90
22426;DHT22;11380;50.822;15.790;2023-04-03T10:57:08;3.30;99.10
22426;DHT22;11380;50.822;15.790;2023-04-03T11:02:26;2.30;98.50
22426;DHT22;11380;50.822;15.790;2023-04-03T11:07:42;3.10;97.70
22426;DHT22;11380;50.822;15.790;2023-04-03T11:12:56;2.50;98.50
22426;DHT22;11380;50.822;15.790;2023-04-03T11:18:04;2.50;99.00
22426;DHT22;11380;50.822;15.790;2023-04-03T11:23:25;2.20;98.40
22426;DHT22;11380;50.822;15.790;2023-04-03T11:28:38;1.90;95.70
22426;DHT22;11380;50.822;15.790;2023-04-03T11:34:05;3.40;95.80
22426;DHT22;11380;50.822;15.790;2023-04-03T11:39:32;2.60;95.40
22426;DHT22;11380;50.822;15.790;2023-04-03T11:44:43;2.60;95.70
22426;DHT22;11380;50.822;15.790;2023-04-03T11:50:02;2.10;96.00
22426;DHT22;11380;50.822;15.790;2023-04-03T12:00:52;2.10;98.70
22426;DHT22;11380;50.822;15.790;2023-04-03T12:27:25;3.40;96.60
22426;DHT22;11380;50.822;15.790;2023-04-03T12:44:24;2.30;95.20
22426;DHT22;11380;50.822;15.790;2023-04-03T12:49:42;2.80;96.90
22426;DHT22;11380;50.822;15.790;2023-04-03T12:54:50;2.60;96.50
22426;DHT22;11380;50.822;15.790;2023-04-03T12:59:58;2.70;96.00
22426;DHT22;11380;50.822;15.790;2023-04-03T13:05:08;2.70;95.60
22426;DHT22;11380;50.822;15.790;2023-04-03T13:10:17;2.80;95.40
22426;DHT22;11380;50.822;15.790;2023-04-03T13:15:30;2.50;95.90
22426;DHT22;11380;50.822;15.790;2023-04-03T13:20:38;2.50;96.10
22426;DHT22;11380;50.822;15.790;2023-04-03T13:25:46;2.80;95.90
22426;DHT22;11380;50.822;15.790;2023-04-03T13:31:02;2.80;97.60
22426;DHT22;11380;50.822;15.790;2023-04-03T13:36:19;2.50;96.10
22426;DHT22;11380;50.822;15.790;2023-04-03T13:41:37;2.50;97.00
22426;DHT22;11380;50.822;15.790;2023-04-03T13:46:45;2.70;97.40
22426;DHT22;11380;50.822;15.790;2023-04-03T13:51:53;3.60;96.00
22426;DHT22;11380;50.822;15.790;2023-04-03T13:57:10;3.60;96.10
22426;DHT22;11380;50.822;15.790;2023-04-03T14:02:31;3.10;94.90
22426;DHT22;11380;50.822;15.790;2023-04-03T14:07:39;3.10;94.10
22426;DHT22;11380;50.822;15.790;2023-04-03T14:12:46;3.00;95.80
22426;DHT22;11380;50.822;15.790;2023-04-03T14:17:55;2.70;96.50
22426;DHT22;11380;50.822;15.790;2023-04-03T14:23:03;2.60;96.60
22426;DHT22;11380;50.822;15.790;2023-04-03T14:28:18;2.80;95.40
22426;DHT22;11380;50.822;15.790;2023-04-03T14:33:27;2.90;96.00
22426;DHT22;11380;50.822;15.790;2023-04-03T14:38:36;2.60;94.50
22426;DHT22;11380;50.822;15.790;2023-04-03T14:43:44;2.60;96.00
22426;DHT22;11380;50.822;15.790;2023-04-03T14:48:52;2.70;97.40
22426;DHT22;11380;50.822;15.790;2023-04-03T14:53:59;2.90;96.00
22426;DHT22;11380;50.822;15.790;2023-04-03T14:59:09;3.40;96.40
22426;DHT22;11380;50.822;15.790;2023-04-03T15:04:21;3.20;94.30
22426;DHT22;11380;50.822;15.790;2023-04-03T15:09:29;2.70;96.00
22426;DHT22;11380;50.822;15.790;2023-04-03T15:14:37;2.80;94.60
22426;DHT22;11380;50.822;15.790;2023-04-03T15:19:45;2.40;95.10
22426;DHT22;11380;50.822;15.790;2023-04-03T15:24:53;2.50;96.30
22426;DHT22;11380;50.822;15.790;2023-04-03T15:30:00;2.30;95.90
22426;DHT22;11380;50.822;15.790;2023-04-03T15:35:09;2.60;96.80
22426;DHT22;11380;50.822;15.790;2023-04-03T15:40:17;2.30;95.80
22426;DHT22;11380;50.822;15.790;2023-04-03T15:45:24;2.20;96.30
22426;DHT22;11380;50.822;15.790;2023-04-03T15:50:34;2.30;96.30
22426;DHT22;11380;50.822;15.790;2023-04-03T15:55:43;2.10;95.80
22426;DHT22;11380;50.822;15.790;2023-04-03T16:00:50;2.20;96.70
22426;DHT22;11380;50.822;15.790;2023-04-03T16:05:56;2.30;95.80
22426;DHT22;11380;50.822;15.790;2023-04-03T16:11:03;2.10;95.60
22426;DHT22;11380;50.822;15.790;2023-04-03T16:16:13;2.30;95.90
22426;DHT22;11380;50.822;15.790;2023-04-03T16:21:20;2.00;95.80
22426;DHT22;11380;50.822;15.790;2023-04-03T16:26:27;1.90;95.80
22426;DHT22;11380;50.822;15.790;2023-04-03T16:31:35;2.00;97.00
22426;DHT22;11380;50.822;15.790;2023-04-03T16:36:45;1.90;97.40
22426;DHT22;11380;50.822;15.790;2023-04-03T16:41:53;2.00;97.60
22426;DHT22;11380;50.822;15.790;2023-04-03T16:47:00;1.90;96.50
22426;DHT22;11380;50.822;15.790;2023-04-03T16:52:08;1.80;95.90
22426;DHT22;11380;50.822;15.790;2023-04-03T16:57:16;1.90;96.70
22426;DHT22;11380;50.822;15.790;2023-04-03T17:02:24;1.80;97.20
22426;DHT22;11380;50.822;15.790;2023-04-03T17:07:32;1.70;97.50
22426;DHT22;11380;50.822;15.790;2023-04-03T17:12:40;1.90;97.60
22426;DHT22;11380;50.822;15.790;2023-04-03T17:17:48;1.70;97.90
22426;DHT22;11380;50.822;15.790;2023-04-03T17:22:55;1.70;97.70
22426;DHT22;11380;50.822;15.790;2023-04-03T17:28:05;1.70;98.30
22426;DHT22;11380;50.822;15.790;2023-04-03T17:33:12;1.70;98.70
22426;DHT22;11380;50.822;15.790;2023-04-03T17:38:18;1.80;97.90
22426;DHT22;11380;50.822;15.790;2023-04-03T17:43:27;1.70;97.70
22426;DHT22;11380;50.822;15.790;2023-04-03T17:48:37;1.60;97.20
22426;DHT22;11380;50.822;15.790;2023-04-03T17:53:46;1.70;97.40
22426;DHT22;11380;50.822;15.790;2023-04-03T17:58:56;1.60;97.40
22426;DHT22;11380;50.822;15.790;2023-04-03T18:04:04;1.70;96.70
22426;DHT22;11380;50.822;15.790;2023-04-03T18:09:19;1.80;97.10
22426;DHT22;11380;50.822;15.790;2023-04-03T18:14:25;1.90;98.30
22426;DHT22;11380;50.822;15.790;2023-04-03T18:19:33;1.90;97.80
22426;DHT22;11380;50.822;15.790;2023-04-03T18:24:41;2.00;97.50
22426;DHT22;11380;50.822;15.790;2023-04-03T18:29:55;1.90;96.80
22426;DHT22;11380;50.822;15.790;2023-04-03T18:35:03;1.80;95.60
22426;DHT22;11380;50.822;15.790;2023-04-03T18:40:18;1.80;96.50
22426;DHT22;11380;50.822;15.790;2023-04-03T18:45:29;1.90;96.90
22426;DHT22;11380;50.822;15.790;2023-04-03T18:50:38;1.80;96.70
22426;DHT22;11380;50.822;15.790;2023-04-03T18:55:47;1.80;97.20
22426;DHT22;11380;50.822;15.790;2023-04-03T19:00:54;1.80;96.00
22426;DHT22;11380;50.822;15.790;2023-04-03T19:06:04;1.80;97.50
22426;DHT22;11380;50.822;15.790;2023-04-03T19:11:13;1.80;97.40
22426;DHT22;11380;50.822;15.790;2023-04-03T19:16:21;1.70;98.10
22426;DHT22;11380;50.822;15.790;2023-04-03T19:21:32;1.80;98.50
22426;DHT22;11380;50.822;15.790;2023-04-03T19:26:41;1.80;98.30
22426;DHT22;11380;50.822;15.790;2023-04-03T19:31:48;1.70;97.90
22426;DHT22;11380;50.822;15.790;2023-04-03T19:36:57;1.50;99.90
22426;DHT22;11380;50.822;15.790;2023-04-03T19:42:06;1.10;98.10
22426;DHT22;11380;50.822;15.790;2023-04-03T19:47:17;1.30;99.90
22426;DHT22;11380;50.822;15.790;2023-04-03T19:52:27;1.10;99.30
22426;DHT22;11380;50.822;15.790;2023-04-03T19:57:34;1.30;99.20
22426;DHT22;11380;50.822;15.790;2023-04-03T20:02:42;1.20;99.90
22426;DHT22;11380;50.822;15.790;2023-04-03T20:07:50;1.30;99.90
22426;DHT22;11380;50.822;15.790;2023-04-03T20:12:57;1.40;99.90
22426;DHT22;11380;50.822;15.790;2023-04-03T20:18:05;1.60;99.90
22426;DHT22;11380;50.822;15.790;2023-04-03T20:23:14;1.30;99.90
22426;DHT22;11380;50.822;15.790;2023-04-03T20:28:23;1.60;99.90
22426;DHT22;11380;50.822;15.790;2023-04-03T20:33:30;1.60;99.90
22426;DHT22;11380;50.822;15.790;2023-04-03T20:38:38;1.50;99.90
22426;DHT22;11380;50.822;15.790;2023-04-03T20:43:46;1.60;99.90
22426;DHT22;11380;50.822;15.790;2023-04-03T20:48:53;1.40;99.90
22426;DHT22;11380;50.822;15.790;2023-04-03T20:54:01;1.30;99.40
22426;DHT22;11380;50.822;15.790;2023-04-03T20:59:09;1.20;99.90
22426;DHT22;11380;50.822;15.790;2023-04-03T21:04:26;1.00;99.90
22426;DHT22;11380;50.822;15.790;2023-04-03T21:20:54;0.80;98.60
22426;DHT22;11380;50.822;15.790;2023-04-03T21:26:02;0.90;99.90
22426;DHT22;11380;50.822;15.790;2023-04-03T21:31:10;1.20;99.90
22426;DHT22;11380;50.822;15.790;2023-04-03T21:36:19;1.00;99.40
22426;DHT22;11380;50.822;15.790;2023-04-03T21:41:28;1.10;99.90
22426;DHT22;11380;50.822;15.790;2023-04-03T21:46:36;0.80;97.20
22426;DHT22;11380;50.822;15.790;2023-04-03T21:51:44;0.90;98.30
22426;DHT22;11380;50.822;15.790;2023-04-03T21:56:51;0.80;96.90
22426;DHT22;11380;50.822;15.790;2023-04-03T22:01:58;0.80;97.20
22426;DHT22;11380;50.822;15.790;2023-04-03T22:07:07;0.90;97.50
22426;DHT22;11380;50.822;15.790;2023-04-03T22:12:15;0.90;98.20
22426;DHT22;11380;50.822;15.790;2023-04-03T22:17:23;1.10;99.30
22426;DHT22;11380;50.822;15.790;2023-04-03T22:22:30;1.00;98.80
22426;DHT22;11380;50.822;15.790;2023-04-03T22:27:39;1.10;99.50
22426;DHT22;11380;50.822;15.790;2023-04-03T22:32:48;1.20;99.50
22426;DHT22;11380;50.822;15.790;2023-04-03T22:37:55;1.20;99.90
22426;DHT22;11380;50.822;15.790;2023-04-03T22:43:02;1.20;99.70
22426;DHT22;11380;50.822;15.790;2023-04-03T22:48:09;1.20;99.50
22426;DHT22;11380;50.822;15.790;2023-04-03T22:53:17;1.30;99.70
22426;DHT22;11380;50.822;15.790;2023-04-03T22:58:24;1.20;99.90
22426;DHT22;11380;50.822;15.790;2023-04-03T23:03:34;1.20;98.70
22426;DHT22;11380;50.822;15.790;2023-04-03T23:08:42;1.00;97.60
22426;DHT22;11380;50.822;15.790;2023-04-03T23:13:49;0.70;99.50
22426;DHT22;11380;50.822;15.790;2023-04-03T23:18:56;0.50;97.40
22426;DHT22;11380;50.822;15.790;2023-04-03T23:24:03;0.70;98.30
22426;DHT22;11380;50.822;15.790;2023-04-03T23:29:10;0.60;98.20
22426;DHT22;11380;50.822;15.790;2023-04-03T23:34:17;0.70;98.60
22426;DHT22;11380;50.822;15.790;2023-04-03T23:39:24;0.60;99.50
22426;DHT22;11380;50.822;15.790;2023-04-03T23:44:33;0.50;99.90
22426;DHT22;11380;50.822;15.790;2023-04-03T23:49:42;0.40;99.90
22426;DHT22;11380;50.822;15.790;2023-04-03T23:54:49;0.20;99.90
22426;DHT22;11380;50.822;15.790;2023-04-03T23:59:57;0.20;99.90
